Destinations Malta International Airport

Malta International Airport (LMML / MLA)

Flights to Malta International Airport

Flight number From ETE Dispatch
SPY-2482 EGPH Edinburgh Airport 03:45

Flights from Malta International Airport

Flight number To ETE Dispatch
SPY-2483 EGPH Edinburgh Airport 03:45
About

Malta International Airport facts

Malta International Airport is located in Malta at an elevation of 91.4 meters or 300 feet.

Currently, Speedy Airlines serves 2 flights to and from Malta International Airport.

Detailed airport info

Route map

Weather

Current weather

METAR

METAR

Metar data retrieved Sunday, 21 July 2024 at 19:25 UTC

LMML 211915Z VRB01KT 9999 FEW020 30/11 Q1011 NOSIG
Wind Temperature
1 kt 30c